sensor_id;sensor_type;location;lat;lon;timestamp;P1;durP1;ratioP1;P2;durP2;ratioP2
43606;SDS011;29197;44.788;10.366;2023-07-20T00:00:16;3.03;;;1.50;;
43606;SDS011;29197;44.788;10.366;2023-07-20T00:03:13;4.32;;;1.75;;
43606;SDS011;29197;44.788;10.366;2023-07-20T00:06:06;1.92;;;1.38;;
43606;SDS011;29197;44.788;10.366;2023-07-20T00:08:55;4.13;;;2.20;;
43606;SDS011;29197;44.788;10.366;2023-07-20T00:11:48;3.70;;;1.70;;
43606;SDS011;29197;44.788;10.366;2023-07-20T00:14:38;3.00;;;1.90;;
43606;SDS011;29197;44.788;10.366;2023-07-20T00:17:26;3.92;;;2.30;;
43606;SDS011;29197;44.788;10.366;2023-07-20T00:20:16;3.75;;;2.30;;
43606;SDS011;29197;44.788;10.366;2023-07-20T00:23:05;5.15;;;2.20;;
43606;SDS011;29197;44.788;10.366;2023-07-20T00:25:54;5.28;;;2.00;;
43606;SDS011;29197;44.788;10.366;2023-07-20T00:28:43;4.80;;;1.77;;
43606;SDS011;29197;44.788;10.366;2023-07-20T00:31:32;3.33;;;1.80;;
43606;SDS011;29197;44.788;10.366;2023-07-20T00:34:21;5.70;;;2.35;;
43606;SDS011;29197;44.788;10.366;2023-07-20T00:37:11;1.88;;;1.50;;
43606;SDS011;29197;44.788;10.366;2023-07-20T00:40:00;4.70;;;1.70;;
43606;SDS011;29197;44.788;10.366;2023-07-20T00:42:51;2.78;;;1.60;;
43606;SDS011;29197;44.788;10.366;2023-07-20T00:45:39;3.50;;;2.08;;
43606;SDS011;29197;44.788;10.366;2023-07-20T00:48:28;6.07;;;1.73;;
43606;SDS011;29197;44.788;10.366;2023-07-20T00:51:17;2.28;;;1.70;;
43606;SDS011;29197;44.788;10.366;2023-07-20T00:54:07;5.72;;;1.98;;
43606;SDS011;29197;44.788;10.366;2023-07-20T00:56:56;3.10;;;1.88;;
43606;SDS011;29197;44.788;10.366;2023-07-20T00:59:45;7.22;;;1.90;;
43606;SDS011;29197;44.788;10.366;2023-07-20T01:02:34;2.92;;;1.90;;
43606;SDS011;29197;44.788;10.366;2023-07-20T01:05:24;7.75;;;2.35;;
43606;SDS011;29197;44.788;10.366;2023-07-20T01:08:22;2.38;;;1.52;;
43606;SDS011;29197;44.788;10.366;2023-07-20T01:11:24;1.92;;;1.50;;
43606;SDS011;29197;44.788;10.366;2023-07-20T01:14:21;4.00;;;1.70;;
43606;SDS011;29197;44.788;10.366;2023-07-20T01:17:12;4.10;;;1.60;;
43606;SDS011;29197;44.788;10.366;2023-07-20T01:20:00;2.33;;;1.40;;
43606;SDS011;29197;44.788;10.366;2023-07-20T01:23:08;2.72;;;1.65;;
43606;SDS011;29197;44.788;10.366;2023-07-20T01:26:36;3.65;;;1.55;;
43606;SDS011;29197;44.788;10.366;2023-07-20T01:29:41;2.45;;;1.60;;
43606;SDS011;29197;44.788;10.366;2023-07-20T01:32:44;2.58;;;1.50;;
43606;SDS011;29197;44.788;10.366;2023-07-20T01:35:35;1.73;;;1.40;;
43606;SDS011;29197;44.788;10.366;2023-07-20T01:38:26;2.15;;;1.80;;
43606;SDS011;29197;44.788;10.366;2023-07-20T01:41:15;3.85;;;2.20;;
43606;SDS011;29197;44.788;10.366;2023-07-20T01:44:05;4.45;;;2.53;;
43606;SDS011;29197;44.788;10.366;2023-07-20T01:46:54;5.45;;;2.45;;
43606;SDS011;29197;44.788;10.366;2023-07-20T01:49:44;4.38;;;2.75;;
43606;SDS011;29197;44.788;10.366;2023-07-20T01:52:33;5.70;;;2.50;;
43606;SDS011;29197;44.788;10.366;2023-07-20T01:55:21;5.00;;;2.67;;
43606;SDS011;29197;44.788;10.366;2023-07-20T01:58:10;5.65;;;2.70;;
43606;SDS011;29197;44.788;10.366;2023-07-20T02:00:59;7.50;;;3.30;;
43606;SDS011;29197;44.788;10.366;2023-07-20T02:03:48;4.35;;;2.67;;
43606;SDS011;29197;44.788;10.366;2023-07-20T02:06:38;5.03;;;2.85;;
43606;SDS011;29197;44.788;10.366;2023-07-20T02:09:27;4.80;;;2.85;;
43606;SDS011;29197;44.788;10.366;2023-07-20T02:12:16;3.65;;;2.42;;
43606;SDS011;29197;44.788;10.366;2023-07-20T02:15:05;2.58;;;2.17;;
43606;SDS011;29197;44.788;10.366;2023-07-20T02:17:55;3.60;;;2.50;;
43606;SDS011;29197;44.788;10.366;2023-07-20T02:20:44;7.15;;;3.35;;
43606;SDS011;29197;44.788;10.366;2023-07-20T02:23:34;5.75;;;3.20;;
43606;SDS011;29197;44.788;10.366;2023-07-20T02:26:23;4.73;;;2.90;;
43606;SDS011;29197;44.788;10.366;2023-07-20T02:29:12;6.70;;;3.78;;
43606;SDS011;29197;44.788;10.366;2023-07-20T02:32:00;5.00;;;2.80;;
43606;SDS011;29197;44.788;10.366;2023-07-20T02:34:49;6.70;;;3.55;;
43606;SDS011;29197;44.788;10.366;2023-07-20T02:37:38;8.18;;;3.85;;
43606;SDS011;29197;44.788;10.366;2023-07-20T02:40:29;6.07;;;3.50;;
43606;SDS011;29197;44.788;10.366;2023-07-20T02:43:17;8.20;;;3.40;;
43606;SDS011;29197;44.788;10.366;2023-07-20T02:46:06;5.77;;;3.37;;
43606;SDS011;29197;44.788;10.366;2023-07-20T02:48:55;7.45;;;3.75;;
43606;SDS011;29197;44.788;10.366;2023-07-20T02:51:44;5.22;;;2.78;;
43606;SDS011;29197;44.788;10.366;2023-07-20T02:54:33;6.57;;;3.80;;
43606;SDS011;29197;44.788;10.366;2023-07-20T02:57:23;8.65;;;4.10;;
43606;SDS011;29197;44.788;10.366;2023-07-20T03:00:12;4.32;;;2.83;;
43606;SDS011;29197;44.788;10.366;2023-07-20T03:03:03;6.03;;;3.72;;
43606;SDS011;29197;44.788;10.366;2023-07-20T03:05:56;8.52;;;3.90;;
43606;SDS011;29197;44.788;10.366;2023-07-20T03:08:46;8.60;;;4.45;;
43606;SDS011;29197;44.788;10.366;2023-07-20T03:11:35;6.18;;;3.53;;
43606;SDS011;29197;44.788;10.366;2023-07-20T03:14:25;6.38;;;3.40;;
43606;SDS011;29197;44.788;10.366;2023-07-20T03:17:14;7.93;;;3.80;;
43606;SDS011;29197;44.788;10.366;2023-07-20T03:20:04;4.60;;;2.60;;
43606;SDS011;29197;44.788;10.366;2023-07-20T03:22:55;6.27;;;3.90;;
43606;SDS011;29197;44.788;10.366;2023-07-20T03:25:44;4.65;;;3.17;;
43606;SDS011;29197;44.788;10.366;2023-07-20T03:28:33;4.55;;;3.05;;
43606;SDS011;29197;44.788;10.366;2023-07-20T03:31:23;7.03;;;3.80;;
43606;SDS011;29197;44.788;10.366;2023-07-20T03:34:12;8.85;;;4.20;;
43606;SDS011;29197;44.788;10.366;2023-07-20T03:37:02;6.03;;;3.97;;
43606;SDS011;29197;44.788;10.366;2023-07-20T03:39:52;5.38;;;3.20;;
43606;SDS011;29197;44.788;10.366;2023-07-20T03:42:41;5.13;;;3.08;;
43606;SDS011;29197;44.788;10.366;2023-07-20T03:45:29;3.65;;;2.42;;
43606;SDS011;29197;44.788;10.366;2023-07-20T03:48:20;6.78;;;2.88;;
43606;SDS011;29197;44.788;10.366;2023-07-20T03:51:09;6.55;;;3.33;;
43606;SDS011;29197;44.788;10.366;2023-07-20T03:53:58;3.05;;;2.20;;
43606;SDS011;29197;44.788;10.366;2023-07-20T03:56:47;2.90;;;1.80;;
43606;SDS011;29197;44.788;10.366;2023-07-20T03:59:36;4.30;;;2.50;;
43606;SDS011;29197;44.788;10.366;2023-07-20T04:02:25;2.92;;;2.28;;
43606;SDS011;29197;44.788;10.366;2023-07-20T04:05:16;3.58;;;2.10;;
43606;SDS011;29197;44.788;10.366;2023-07-20T04:08:04;4.28;;;2.30;;
43606;SDS011;29197;44.788;10.366;2023-07-20T04:10:53;5.85;;;2.53;;
43606;SDS011;29197;44.788;10.366;2023-07-20T04:13:42;5.05;;;2.47;;
43606;SDS011;29197;44.788;10.366;2023-07-20T04:16:31;5.93;;;2.53;;
43606;SDS011;29197;44.788;10.366;2023-07-20T04:19:20;4.85;;;2.33;;
43606;SDS011;29197;44.788;10.366;2023-07-20T04:22:10;4.65;;;2.17;;
43606;SDS011;29197;44.788;10.366;2023-07-20T04:25:02;4.57;;;2.10;;
43606;SDS011;29197;44.788;10.366;2023-07-20T04:27:51;7.20;;;3.13;;
43606;SDS011;29197;44.788;10.366;2023-07-20T04:30:40;5.95;;;3.17;;
43606;SDS011;29197;44.788;10.366;2023-07-20T04:33:29;7.57;;;3.45;;
43606;SDS011;29197;44.788;10.366;2023-07-20T04:36:18;4.10;;;2.80;;
43606;SDS011;29197;44.788;10.366;2023-07-20T04:39:09;3.35;;;2.08;;
43606;SDS011;29197;44.788;10.366;2023-07-20T04:42:15;12.60;;;3.38;;
43606;SDS011;29197;44.788;10.366;2023-07-20T04:45:05;2.77;;;2.23;;
43606;SDS011;29197;44.788;10.366;2023-07-20T04:47:54;4.15;;;2.20;;
43606;SDS011;29197;44.788;10.366;2023-07-20T04:50:44;4.15;;;2.20;;
43606;SDS011;29197;44.788;10.366;2023-07-20T04:53:33;5.15;;;2.05;;
43606;SDS011;29197;44.788;10.366;2023-07-20T04:56:23;9.10;;;2.78;;
43606;SDS011;29197;44.788;10.366;2023-07-20T04:59:12;2.50;;;2.05;;
43606;SDS011;29197;44.788;10.366;2023-07-20T05:02:01;4.82;;;2.17;;
43606;SDS011;29197;44.788;10.366;2023-07-20T05:04:50;4.78;;;2.55;;
43606;SDS011;29197;44.788;10.366;2023-07-20T05:07:39;6.57;;;2.88;;
43606;SDS011;29197;44.788;10.366;2023-07-20T05:10:28;6.30;;;3.35;;
43606;SDS011;29197;44.788;10.366;2023-07-20T05:13:18;5.43;;;2.88;;
43606;SDS011;29197;44.788;10.366;2023-07-20T05:16:07;6.22;;;2.50;;
43606;SDS011;29197;44.788;10.366;2023-07-20T05:18:56;4.95;;;2.97;;
43606;SDS011;29197;44.788;10.366;2023-07-20T05:21:45;5.75;;;2.80;;
43606;SDS011;29197;44.788;10.366;2023-07-20T05:24:33;5.97;;;3.70;;
43606;SDS011;29197;44.788;10.366;2023-07-20T05:27:22;5.28;;;3.13;;
43606;SDS011;29197;44.788;10.366;2023-07-20T05:30:13;8.98;;;3.70;;
43606;SDS011;29197;44.788;10.366;2023-07-20T05:33:01;6.05;;;3.55;;
43606;SDS011;29197;44.788;10.366;2023-07-20T05:35:50;7.88;;;4.18;;
43606;SDS011;29197;44.788;10.366;2023-07-20T05:38:39;5.22;;;3.90;;
43606;SDS011;29197;44.788;10.366;2023-07-20T05:41:28;6.22;;;3.80;;
43606;SDS011;29197;44.788;10.366;2023-07-20T05:44:17;7.22;;;3.75;;
43606;SDS011;29197;44.788;10.366;2023-07-20T05:47:07;7.35;;;4.53;;
43606;SDS011;29197;44.788;10.366;2023-07-20T05:49:56;8.73;;;4.32;;
43606;SDS011;29197;44.788;10.366;2023-07-20T05:52:45;7.95;;;4.20;;
43606;SDS011;29197;44.788;10.366;2023-07-20T05:55:34;7.70;;;4.65;;
43606;SDS011;29197;44.788;10.366;2023-07-20T05:58:23;9.68;;;4.03;;
43606;SDS011;29197;44.788;10.366;2023-07-20T06:01:12;6.70;;;4.10;;
43606;SDS011;29197;44.788;10.366;2023-07-20T06:04:02;5.88;;;3.97;;
43606;SDS011;29197;44.788;10.366;2023-07-20T06:06:51;11.07;;;4.68;;
43606;SDS011;29197;44.788;10.366;2023-07-20T06:09:40;6.88;;;4.50;;
43606;SDS011;29197;44.788;10.366;2023-07-20T06:12:29;7.13;;;3.22;;
43606;SDS011;29197;44.788;10.366;2023-07-20T06:15:24;7.72;;;3.67;;
43606;SDS011;29197;44.788;10.366;2023-07-20T06:18:13;8.52;;;3.50;;
43606;SDS011;29197;44.788;10.366;2023-07-20T06:21:04;5.97;;;3.22;;
43606;SDS011;29197;44.788;10.366;2023-07-20T06:23:53;6.65;;;3.92;;
43606;SDS011;29197;44.788;10.366;2023-07-20T06:26:41;7.55;;;4.18;;
43606;SDS011;29197;44.788;10.366;2023-07-20T06:29:30;8.30;;;3.75;;
43606;SDS011;29197;44.788;10.366;2023-07-20T06:32:19;8.27;;;3.65;;
43606;SDS011;29197;44.788;10.366;2023-07-20T06:35:08;7.70;;;3.50;;
43606;SDS011;29197;44.788;10.366;2023-07-20T06:37:58;8.45;;;4.13;;
43606;SDS011;29197;44.788;10.366;2023-07-20T06:40:50;7.40;;;3.97;;
43606;SDS011;29197;44.788;10.366;2023-07-20T06:43:39;6.97;;;3.33;;
43606;SDS011;29197;44.788;10.366;2023-07-20T06:46:31;6.45;;;3.55;;
43606;SDS011;29197;44.788;10.366;2023-07-20T06:49:26;4.55;;;2.90;;
43606;SDS011;29197;44.788;10.366;2023-07-20T06:52:15;4.28;;;2.95;;
43606;SDS011;29197;44.788;10.366;2023-07-20T06:55:06;4.07;;;2.70;;
43606;SDS011;29197;44.788;10.366;2023-07-20T06:57:55;4.45;;;2.83;;
43606;SDS011;29197;44.788;10.366;2023-07-20T07:00:45;4.22;;;2.60;;
43606;SDS011;29197;44.788;10.366;2023-07-20T07:03:34;2.65;;;2.40;;
43606;SDS011;29197;44.788;10.366;2023-07-20T07:06:23;5.15;;;2.55;;
43606;SDS011;29197;44.788;10.366;2023-07-20T07:09:14;3.17;;;2.30;;
43606;SDS011;29197;44.788;10.366;2023-07-20T07:12:05;6.57;;;3.20;;
43606;SDS011;29197;44.788;10.366;2023-07-20T07:14:54;5.72;;;2.90;;
43606;SDS011;29197;44.788;10.366;2023-07-20T07:17:43;3.63;;;2.60;;
43606;SDS011;29197;44.788;10.366;2023-07-20T07:20:32;4.68;;;2.80;;
43606;SDS011;29197;44.788;10.366;2023-07-20T07:23:20;6.22;;;3.22;;
43606;SDS011;29197;44.788;10.366;2023-07-20T07:26:09;5.22;;;2.90;;
43606;SDS011;29197;44.788;10.366;2023-07-20T07:28:59;4.07;;;2.15;;
43606;SDS011;29197;44.788;10.366;2023-07-20T07:31:47;3.30;;;2.35;;
43606;SDS011;29197;44.788;10.366;2023-07-20T07:34:36;5.20;;;2.92;;
43606;SDS011;29197;44.788;10.366;2023-07-20T07:37:25;5.32;;;2.75;;
43606;SDS011;29197;44.788;10.366;2023-07-20T07:40:14;4.53;;;2.70;;
43606;SDS011;29197;44.788;10.366;2023-07-20T07:43:02;2.47;;;1.70;;
43606;SDS011;29197;44.788;10.366;2023-07-20T07:45:53;4.72;;;2.88;;
43606;SDS011;29197;44.788;10.366;2023-07-20T07:48:42;8.83;;;3.57;;
43606;SDS011;29197;44.788;10.366;2023-07-20T07:51:30;4.93;;;2.47;;
43606;SDS011;29197;44.788;10.366;2023-07-20T07:54:19;3.87;;;2.77;;
43606;SDS011;29197;44.788;10.366;2023-07-20T07:57:08;3.47;;;1.83;;
43606;SDS011;29197;44.788;10.366;2023-07-20T07:59:56;6.23;;;3.03;;
43606;SDS011;29197;44.788;10.366;2023-07-20T08:02:46;6.60;;;3.60;;
43606;SDS011;29197;44.788;10.366;2023-07-20T08:05:35;5.20;;;2.85;;
43606;SDS011;29197;44.788;10.366;2023-07-20T08:08:24;4.57;;;2.70;;
43606;SDS011;29197;44.788;10.366;2023-07-20T08:11:13;2.40;;;2.07;;
43606;SDS011;29197;44.788;10.366;2023-07-20T08:14:01;3.00;;;2.20;;
43606;SDS011;29197;44.788;10.366;2023-07-20T08:16:50;4.65;;;2.97;;
43606;SDS011;29197;44.788;10.366;2023-07-20T08:19:41;4.50;;;2.60;;
43606;SDS011;29197;44.788;10.366;2023-07-20T08:22:30;5.03;;;2.72;;
43606;SDS011;29197;44.788;10.366;2023-07-20T08:25:19;6.10;;;2.67;;
43606;SDS011;29197;44.788;10.366;2023-07-20T08:28:08;6.75;;;2.97;;
43606;SDS011;29197;44.788;10.366;2023-07-20T08:30:56;5.63;;;2.80;;
43606;SDS011;29197;44.788;10.366;2023-07-20T08:33:45;5.25;;;2.80;;
43606;SDS011;29197;44.788;10.366;2023-07-20T08:36:35;6.50;;;3.42;;
43606;SDS011;29197;44.788;10.366;2023-07-20T08:39:24;6.05;;;2.90;;
43606;SDS011;29197;44.788;10.366;2023-07-20T08:42:13;6.35;;;3.67;;
43606;SDS011;29197;44.788;10.366;2023-07-20T08:45:03;8.15;;;3.17;;
43606;SDS011;29197;44.788;10.366;2023-07-20T08:47:56;8.10;;;3.85;;
43606;SDS011;29197;44.788;10.366;2023-07-20T08:50:46;7.00;;;3.00;;
43606;SDS011;29197;44.788;10.366;2023-07-20T08:53:38;9.23;;;3.25;;
43606;SDS011;29197;44.788;10.366;2023-07-20T08:56:27;7.85;;;3.58;;
43606;SDS011;29197;44.788;10.366;2023-07-20T08:59:17;6.38;;;3.05;;
43606;SDS011;29197;44.788;10.366;2023-07-20T09:02:06;6.65;;;3.08;;
43606;SDS011;29197;44.788;10.366;2023-07-20T09:05:03;7.72;;;3.13;;
43606;SDS011;29197;44.788;10.366;2023-07-20T09:07:52;9.50;;;3.20;;
43606;SDS011;29197;44.788;10.366;2023-07-20T09:10:42;5.22;;;3.20;;
43606;SDS011;29197;44.788;10.366;2023-07-20T09:13:31;7.43;;;3.15;;
43606;SDS011;29197;44.788;10.366;2023-07-20T09:16:20;9.02;;;3.35;;
43606;SDS011;29197;44.788;10.366;2023-07-20T09:19:09;5.57;;;2.78;;
43606;SDS011;29197;44.788;10.366;2023-07-20T09:21:58;8.77;;;3.63;;
43606;SDS011;29197;44.788;10.366;2023-07-20T09:24:47;9.07;;;3.53;;
43606;SDS011;29197;44.788;10.366;2023-07-20T09:27:38;7.32;;;3.17;;
43606;SDS011;29197;44.788;10.366;2023-07-20T09:30:29;7.15;;;3.05;;
43606;SDS011;29197;44.788;10.366;2023-07-20T09:33:18;9.77;;;3.47;;
43606;SDS011;29197;44.788;10.366;2023-07-20T09:36:12;9.43;;;3.85;;
43606;SDS011;29197;44.788;10.366;2023-07-20T09:39:20;6.63;;;3.05;;
43606;SDS011;29197;44.788;10.366;2023-07-20T09:42:12;6.57;;;2.90;;
43606;SDS011;29197;44.788;10.366;2023-07-20T09:45:08;8.00;;;2.70;;
43606;SDS011;29197;44.788;10.366;2023-07-20T09:48:03;5.65;;;2.78;;
43606;SDS011;29197;44.788;10.366;2023-07-20T09:50:56;6.55;;;2.80;;
43606;SDS011;29197;44.788;10.366;2023-07-20T09:53:44;6.55;;;3.50;;
43606;SDS011;29197;44.788;10.366;2023-07-20T09:56:35;6.70;;;3.65;;
43606;SDS011;29197;44.788;10.366;2023-07-20T09:59:24;7.90;;;3.22;;
43606;SDS011;29197;44.788;10.366;2023-07-20T10:02:15;5.28;;;3.10;;
43606;SDS011;29197;44.788;10.366;2023-07-20T10:05:10;8.13;;;3.67;;
43606;SDS011;29197;44.788;10.366;2023-07-20T10:08:01;5.50;;;3.20;;
43606;SDS011;29197;44.788;10.366;2023-07-20T10:10:54;5.65;;;3.63;;
43606;SDS011;29197;44.788;10.366;2023-07-20T10:13:47;6.10;;;3.55;;
43606;SDS011;29197;44.788;10.366;2023-07-20T10:16:39;10.95;;;4.40;;
43606;SDS011;29197;44.788;10.366;2023-07-20T10:19:39;7.22;;;4.18;;
43606;SDS011;29197;44.788;10.366;2023-07-20T10:22:37;6.78;;;3.17;;
43606;SDS011;29197;44.788;10.366;2023-07-20T10:25:28;6.07;;;3.03;;
43606;SDS011;29197;44.788;10.366;2023-07-20T10:28:18;5.78;;;2.97;;
43606;SDS011;29197;44.788;10.366;2023-07-20T10:31:08;5.97;;;3.30;;
43606;SDS011;29197;44.788;10.366;2023-07-20T10:33:58;6.07;;;3.47;;
43606;SDS011;29197;44.788;10.366;2023-07-20T10:36:48;6.38;;;3.55;;
43606;SDS011;29197;44.788;10.366;2023-07-20T10:39:39;4.82;;;3.00;;
43606;SDS011;29197;44.788;10.366;2023-07-20T10:42:28;7.45;;;3.20;;
43606;SDS011;29197;44.788;10.366;2023-07-20T10:45:24;4.43;;;3.10;;
43606;SDS011;29197;44.788;10.366;2023-07-20T10:51:50;7.63;;;3.10;;
43606;SDS011;29197;44.788;10.366;2023-07-20T10:54:48;6.45;;;3.17;;
43606;SDS011;29197;44.788;10.366;2023-07-20T10:57:36;7.35;;;3.08;;
43606;SDS011;29197;44.788;10.366;2023-07-20T11:00:27;5.88;;;3.22;;
43606;SDS011;29197;44.788;10.366;2023-07-20T11:03:26;7.22;;;3.38;;
43606;SDS011;29197;44.788;10.366;2023-07-20T11:06:30;5.03;;;3.08;;
43606;SDS011;29197;44.788;10.366;2023-07-20T11:09:33;5.55;;;2.60;;
43606;SDS011;29197;44.788;10.366;2023-07-20T11:12:22;7.18;;;3.08;;
43606;SDS011;29197;44.788;10.366;2023-07-20T11:15:11;7.43;;;3.15;;
43606;SDS011;29197;44.788;10.366;2023-07-20T11:18:10;4.35;;;3.10;;
43606;SDS011;29197;44.788;10.366;2023-07-20T11:21:00;5.20;;;3.08;;
43606;SDS011;29197;44.788;10.366;2023-07-20T11:23:49;7.43;;;3.47;;
43606;SDS011;29197;44.788;10.366;2023-07-20T11:26:43;7.75;;;2.90;;
43606;SDS011;29197;44.788;10.366;2023-07-20T11:29:32;7.57;;;2.58;;
43606;SDS011;29197;44.788;10.366;2023-07-20T11:32:21;6.38;;;2.78;;
43606;SDS011;29197;44.788;10.366;2023-07-20T11:35:12;4.95;;;2.97;;
43606;SDS011;29197;44.788;10.366;2023-07-20T11:38:01;8.27;;;3.45;;
43606;SDS011;29197;44.788;10.366;2023-07-20T11:40:50;6.85;;;3.40;;
43606;SDS011;29197;44.788;10.366;2023-07-20T11:43:40;8.23;;;4.18;;
43606;SDS011;29197;44.788;10.366;2023-07-20T11:46:29;7.32;;;3.45;;
43606;SDS011;29197;44.788;10.366;2023-07-20T11:49:18;6.75;;;2.90;;
43606;SDS011;29197;44.788;10.366;2023-07-20T11:52:07;9.70;;;3.63;;
43606;SDS011;29197;44.788;10.366;2023-07-20T11:54:56;7.40;;;3.03;;
43606;SDS011;29197;44.788;10.366;2023-07-20T11:58:00;6.03;;;2.83;;
43606;SDS011;29197;44.788;10.366;2023-07-20T12:00:50;5.68;;;2.90;;
43606;SDS011;29197;44.788;10.366;2023-07-20T12:03:39;4.90;;;3.30;;
43606;SDS011;29197;44.788;10.366;2023-07-20T12:06:29;9.25;;;3.83;;
43606;SDS011;29197;44.788;10.366;2023-07-20T12:09:19;6.20;;;3.28;;
43606;SDS011;29197;44.788;10.366;2023-07-20T12:12:09;8.77;;;3.38;;
43606;SDS011;29197;44.788;10.366;2023-07-20T12:15:14;5.60;;;2.92;;
43606;SDS011;29197;44.788;10.366;2023-07-20T12:18:05;7.38;;;2.97;;
43606;SDS011;29197;44.788;10.366;2023-07-20T12:20:58;6.50;;;3.28;;
43606;SDS011;29197;44.788;10.366;2023-07-20T12:23:47;4.82;;;2.92;;
43606;SDS011;29197;44.788;10.366;2023-07-20T12:26:36;5.75;;;3.63;;
43606;SDS011;29197;44.788;10.366;2023-07-20T12:29:25;5.97;;;3.33;;
43606;SDS011;29197;44.788;10.366;2023-07-20T12:32:14;6.05;;;3.10;;
43606;SDS011;29197;44.788;10.366;2023-07-20T12:35:05;7.93;;;3.28;;
43606;SDS011;29197;44.788;10.366;2023-07-20T12:37:54;6.10;;;3.42;;
43606;SDS011;29197;44.788;10.366;2023-07-20T12:40:43;5.18;;;3.40;;
43606;SDS011;29197;44.788;10.366;2023-07-20T12:43:31;8.73;;;3.15;;
43606;SDS011;29197;44.788;10.366;2023-07-20T12:46:20;8.32;;;3.30;;
43606;SDS011;29197;44.788;10.366;2023-07-20T12:49:10;8.00;;;4.00;;
43606;SDS011;29197;44.788;10.366;2023-07-20T12:52:00;4.80;;;3.13;;
43606;SDS011;29197;44.788;10.366;2023-07-20T12:54:50;8.55;;;4.35;;
43606;SDS011;29197;44.788;10.366;2023-07-20T12:57:40;7.45;;;3.25;;
43606;SDS011;29197;44.788;10.366;2023-07-20T13:00:29;6.30;;;3.47;;
43606;SDS011;29197;44.788;10.366;2023-07-20T13:03:18;5.95;;;3.03;;
43606;SDS011;29197;44.788;10.366;2023-07-20T13:06:10;8.05;;;3.17;;
43606;SDS011;29197;44.788;10.366;2023-07-20T13:09:03;8.80;;;3.55;;
43606;SDS011;29197;44.788;10.366;2023-07-20T13:11:52;5.90;;;3.28;;
43606;SDS011;29197;44.788;10.366;2023-07-20T13:14:41;7.32;;;3.25;;
43606;SDS011;29197;44.788;10.366;2023-07-20T13:17:30;5.88;;;3.20;;
43606;SDS011;29197;44.788;10.366;2023-07-20T13:20:19;7.10;;;3.30;;
43606;SDS011;29197;44.788;10.366;2023-07-20T13:23:08;6.82;;;3.35;;
43606;SDS011;29197;44.788;10.366;2023-07-20T13:25:58;5.03;;;3.22;;
43606;SDS011;29197;44.788;10.366;2023-07-20T13:28:47;5.82;;;3.00;;
43606;SDS011;29197;44.788;10.366;2023-07-20T13:31:36;5.05;;;3.17;;
43606;SDS011;29197;44.788;10.366;2023-07-20T13:34:25;4.95;;;3.20;;
43606;SDS011;29197;44.788;10.366;2023-07-20T13:37:18;8.52;;;2.92;;
43606;SDS011;29197;44.788;10.366;2023-07-20T13:40:08;6.72;;;3.72;;
43606;SDS011;29197;44.788;10.366;2023-07-20T13:43:02;4.75;;;2.95;;
43606;SDS011;29197;44.788;10.366;2023-07-20T13:45:52;5.10;;;3.00;;
43606;SDS011;29197;44.788;10.366;2023-07-20T13:48:41;10.60;;;3.28;;
43606;SDS011;29197;44.788;10.366;2023-07-20T13:51:30;6.30;;;3.22;;
43606;SDS011;29197;44.788;10.366;2023-07-20T13:54:19;7.85;;;3.50;;
43606;SDS011;29197;44.788;10.366;2023-07-20T13:57:11;6.80;;;3.03;;
43606;SDS011;29197;44.788;10.366;2023-07-20T14:00:03;4.43;;;3.00;;
43606;SDS011;29197;44.788;10.366;2023-07-20T14:02:55;7.78;;;3.22;;
43606;SDS011;29197;44.788;10.366;2023-07-20T14:05:46;5.72;;;3.20;;
43606;SDS011;29197;44.788;10.366;2023-07-20T14:08:38;8.27;;;3.20;;
43606;SDS011;29197;44.788;10.366;2023-07-20T14:11:28;6.75;;;3.42;;
43606;SDS011;29197;44.788;10.366;2023-07-20T14:14:20;6.88;;;3.22;;
43606;SDS011;29197;44.788;10.366;2023-07-20T14:17:10;6.97;;;3.10;;
43606;SDS011;29197;44.788;10.366;2023-07-20T14:19:58;4.55;;;2.65;;
43606;SDS011;29197;44.788;10.366;2023-07-20T14:22:47;9.82;;;3.95;;
43606;SDS011;29197;44.788;10.366;2023-07-20T14:25:37;7.13;;;3.40;;
43606;SDS011;29197;44.788;10.366;2023-07-20T14:28:26;9.00;;;3.20;;
43606;SDS011;29197;44.788;10.366;2023-07-20T14:31:15;6.00;;;3.53;;
43606;SDS011;29197;44.788;10.366;2023-07-20T14:34:07;7.90;;;3.78;;
43606;SDS011;29197;44.788;10.366;2023-07-20T14:36:58;7.30;;;3.53;;
43606;SDS011;29197;44.788;10.366;2023-07-20T14:39:47;6.95;;;3.47;;
43606;SDS011;29197;44.788;10.366;2023-07-20T14:42:36;7.10;;;3.30;;
43606;SDS011;29197;44.788;10.366;2023-07-20T14:45:24;6.97;;;3.60;;
43606;SDS011;29197;44.788;10.366;2023-07-20T14:48:13;5.32;;;3.20;;
43606;SDS011;29197;44.788;10.366;2023-07-20T16:38:43;6.43;;;3.47;;
43606;SDS011;29197;44.788;10.366;2023-07-20T16:41:32;8.18;;;4.20;;
43606;SDS011;29197;44.788;10.366;2023-07-20T16:44:23;7.45;;;3.90;;
43606;SDS011;29197;44.788;10.366;2023-07-20T16:47:12;9.38;;;4.00;;
43606;SDS011;29197;44.788;10.366;2023-07-20T16:50:01;5.65;;;3.80;;
43606;SDS011;29197;44.788;10.366;2023-07-20T16:52:50;7.35;;;3.80;;
43606;SDS011;29197;44.788;10.366;2023-07-20T16:55:40;8.75;;;4.00;;
43606;SDS011;29197;44.788;10.366;2023-07-20T16:58:31;5.82;;;3.92;;
43606;SDS011;29197;44.788;10.366;2023-07-20T17:01:21;7.57;;;5.00;;
43606;SDS011;29197;44.788;10.366;2023-07-20T17:04:10;7.63;;;4.32;;
43606;SDS011;29197;44.788;10.366;2023-07-20T17:07:01;5.55;;;4.40;;
43606;SDS011;29197;44.788;10.366;2023-07-20T17:09:50;6.53;;;4.13;;
43606;SDS011;29197;44.788;10.366;2023-07-20T17:12:41;6.00;;;3.55;;
43606;SDS011;29197;44.788;10.366;2023-07-20T17:15:30;8.73;;;3.65;;
43606;SDS011;29197;44.788;10.366;2023-07-20T17:18:19;8.23;;;3.80;;
43606;SDS011;29197;44.788;10.366;2023-07-20T17:21:07;8.23;;;4.20;;
43606;SDS011;29197;44.788;10.366;2023-07-20T17:23:56;6.25;;;3.60;;
43606;SDS011;29197;44.788;10.366;2023-07-20T17:26:47;5.97;;;3.78;;
43606;SDS011;29197;44.788;10.366;2023-07-20T17:29:57;7.78;;;3.97;;
43606;SDS011;29197;44.788;10.366;2023-07-20T17:32:46;9.80;;;4.75;;
43606;SDS011;29197;44.788;10.366;2023-07-20T17:35:38;7.65;;;4.50;;
43606;SDS011;29197;44.788;10.366;2023-07-20T17:38:28;6.55;;;4.22;;
43606;SDS011;29197;44.788;10.366;2023-07-20T17:41:20;8.20;;;3.85;;
43606;SDS011;29197;44.788;10.366;2023-07-20T17:44:09;6.68;;;3.85;;
43606;SDS011;29197;44.788;10.366;2023-07-20T17:46:59;8.05;;;3.95;;
43606;SDS011;29197;44.788;10.366;2023-07-20T17:49:50;6.47;;;3.88;;
43606;SDS011;29197;44.788;10.366;2023-07-20T17:52:39;7.47;;;4.32;;
43606;SDS011;29197;44.788;10.366;2023-07-20T17:55:28;6.78;;;4.10;;
43606;SDS011;29197;44.788;10.366;2023-07-20T17:58:17;7.68;;;4.00;;
43606;SDS011;29197;44.788;10.366;2023-07-20T18:01:09;7.60;;;4.30;;
43606;SDS011;29197;44.788;10.366;2023-07-20T18:03:59;6.70;;;3.97;;
43606;SDS011;29197;44.788;10.366;2023-07-20T18:06:48;8.05;;;4.43;;
43606;SDS011;29197;44.788;10.366;2023-07-20T18:09:37;7.00;;;4.30;;
43606;SDS011;29197;44.788;10.366;2023-07-20T18:12:26;6.72;;;4.43;;
43606;SDS011;29197;44.788;10.366;2023-07-20T18:15:14;7.40;;;4.07;;
43606;SDS011;29197;44.788;10.366;2023-07-20T18:18:04;8.90;;;4.28;;
43606;SDS011;29197;44.788;10.366;2023-07-20T18:20:55;6.55;;;3.60;;
43606;SDS011;29197;44.788;10.366;2023-07-20T18:23:44;11.75;;;4.32;;
43606;SDS011;29197;44.788;10.366;2023-07-20T18:26:32;9.55;;;4.30;;
43606;SDS011;29197;44.788;10.366;2023-07-20T18:29:21;8.88;;;4.53;;
43606;SDS011;29197;44.788;10.366;2023-07-20T18:32:11;6.85;;;4.75;;
43606;SDS011;29197;44.788;10.366;2023-07-20T18:34:59;7.55;;;4.47;;
43606;SDS011;29197;44.788;10.366;2023-07-20T18:37:51;7.75;;;4.13;;
43606;SDS011;29197;44.788;10.366;2023-07-20T18:40:39;8.85;;;4.13;;